createdAt,value
2023-01-28T00:00:51.278Z,54.08
2023-01-28T00:03:18.833Z,54.71
2023-01-28T00:05:45.980Z,53.58
2023-01-28T00:08:14.839Z,53.43
2023-01-28T00:10:43.225Z,50.23
2023-01-28T00:13:11.515Z,50.98
2023-01-28T00:15:38.646Z,52.38
2023-01-28T00:18:06.082Z,51.10
2023-01-28T00:20:33.341Z,51.09
2023-01-28T00:23:00.475Z,50.43
2023-01-28T00:25:27.918Z,50.55
2023-01-28T00:27:55.632Z,52.17
2023-01-28T00:30:23.489Z,51.78
2023-01-28T00:32:50.963Z,52.18
2023-01-28T00:35:19.475Z,54.57
2023-01-28T00:37:47.353Z,54.14
2023-01-28T00:40:15.095Z,54.08
2023-01-28T00:42:42.537Z,50.80
2023-01-28T00:45:11.003Z,51.89
2023-01-28T00:47:38.724Z,51.55
2023-01-28T00:50:06.114Z,52.74
2023-01-28T00:52:33.273Z,51.59
2023-01-28T00:55:10.176Z,52.08
2023-01-28T00:57:37.430Z,55.30
2023-01-28T01:00:05.526Z,52.99
2023-01-28T01:02:32.750Z,50.85
2023-01-28T01:05:00.045Z,53.70
2023-01-28T01:07:43.738Z,52.05
2023-01-28T01:10:12.832Z,53.04
2023-01-28T01:12:40.414Z,51.06
2023-01-28T01:15:11.137Z,49.88
2023-01-28T01:17:38.881Z,50.63
2023-01-28T01:20:08.089Z,48.28
2023-01-28T01:22:37.795Z,48.61
2023-01-28T01:25:05.483Z,48.56
2023-01-28T01:27:32.956Z,50.96
2023-01-28T01:30:00.125Z,52.12
2023-01-28T01:32:30.700Z,51.48
2023-01-28T01:34:58.205Z,49.53
2023-01-28T01:37:25.473Z,48.19
2023-01-28T01:39:52.637Z,48.11
2023-01-28T01:42:20.210Z,48.47
2023-01-28T01:45:06.684Z,47.99
2023-01-28T01:47:34.188Z,47.32
2023-01-28T01:50:02.265Z,47.19
2023-01-28T01:52:31.785Z,49.28
2023-01-28T01:54:59.697Z,49.05
2023-01-28T01:57:28.666Z,50.77
2023-01-28T01:59:55.846Z,49.01
2023-01-28T02:02:23.396Z,49.67
2023-01-28T02:04:50.848Z,47.79
2023-01-28T02:07:18.304Z,48.22
2023-01-28T02:09:48.315Z,50.42
2023-01-28T02:12:19.839Z,47.98
2023-01-28T02:14:52.121Z,48.90
2023-01-28T02:17:19.520Z,47.55
2023-01-28T02:19:46.639Z,50.68
2023-01-28T02:22:32.708Z,49.88
2023-01-28T02:25:12.650Z,51.45
2023-01-28T02:27:58.862Z,49.61
2023-01-28T02:30:28.999Z,49.02
2023-01-28T02:32:57.897Z,48.85
2023-01-28T02:35:28.878Z,50.27
2023-01-28T02:38:01.015Z,49.98
2023-01-28T02:40:34.227Z,47.27
2023-01-28T02:43:01.689Z,49.95
2023-01-28T02:45:51.615Z,48.75
2023-01-28T02:48:19.761Z,49.37
2023-01-28T02:50:49.507Z,49.29
2023-01-28T02:53:40.827Z,54.11
2023-01-28T02:56:17.444Z,50.87
2023-01-28T02:58:50.244Z,49.30
2023-01-28T03:01:27.855Z,49.28
2023-01-28T03:03:59.772Z,52.71
2023-01-28T03:06:53.628Z,50.06
2023-01-28T03:09:24.288Z,53.78
2023-01-28T03:12:26.892Z,52.55
2023-01-28T03:15:31.933Z,52.26
2023-01-28T03:18:37.319Z,55.90
2023-01-28T03:21:24.631Z,55.20
2023-01-28T03:24:29.706Z,52.22
2023-01-28T03:27:16.681Z,54.62
2023-01-28T03:30:07.406Z,58.38
2023-01-28T03:32:54.225Z,56.10
2023-01-28T03:35:40.875Z,54.94
2023-01-28T03:38:18.272Z,54.44
2023-01-28T03:40:52.516Z,53.24
2023-01-28T03:43:19.859Z,53.37
2023-01-28T03:45:51.403Z,50.88
2023-01-28T03:48:19.184Z,52.31
2023-01-28T03:50:46.632Z,54.31
2023-01-28T03:53:16.898Z,54.27
2023-01-28T03:55:44.893Z,53.48
2023-01-28T03:58:12.362Z,54.86
2023-01-28T04:00:43.338Z,54.31
2023-01-28T04:03:17.292Z,52.18
2023-01-28T04:06:07.910Z,53.87
2023-01-28T04:08:37.333Z,53.95
2023-01-28T04:11:19.464Z,53.37
2023-01-28T04:13:48.537Z,51.94
2023-01-28T04:16:16.669Z,52.78
2023-01-28T04:18:44.009Z,50.42
2023-01-28T04:21:11.613Z,52.95
2023-01-28T04:23:38.877Z,49.95
2023-01-28T04:26:07.225Z,50.13
2023-01-28T04:28:35.054Z,48.94
2023-01-28T04:31:02.467Z,50.16
2023-01-28T04:33:31.689Z,50.31
2023-01-28T04:35:59.280Z,49.33
2023-01-28T04:38:28.713Z,49.88
2023-01-28T04:40:56.901Z,50.37
2023-01-28T04:43:24.547Z,52.15
2023-01-28T04:45:51.827Z,51.65
2023-01-28T04:48:19.249Z,49.42
2023-01-28T04:50:46.850Z,48.70
2023-01-28T04:53:14.172Z,55.60
2023-01-28T04:55:45.618Z,54.95
2023-01-28T04:58:13.601Z,58.11
2023-01-28T05:00:41.304Z,59.96
2023-01-28T05:03:09.668Z,55.96
2023-01-28T05:05:38.190Z,51.37
2023-01-28T05:08:06.352Z,50.26
2023-01-28T05:10:33.862Z,52.51
2023-01-28T05:13:01.277Z,51.44
2023-01-28T05:15:29.057Z,51.86
2023-01-28T05:17:57.362Z,50.02
2023-01-28T05:20:25.522Z,48.42
2023-01-28T05:22:53.809Z,48.91
2023-01-28T05:25:21.176Z,50.54
2023-01-28T05:27:51.691Z,48.97
2023-01-28T05:30:19.700Z,51.13
2023-01-28T05:32:47.059Z,49.79
2023-01-28T05:35:15.655Z,48.61
2023-01-28T05:37:43.012Z,47.07
2023-01-28T05:40:11.787Z,51.80
2023-01-28T05:42:39.486Z,49.33
2023-01-28T05:45:08.727Z,51.13
2023-01-28T05:47:36.343Z,48.22
2023-01-28T05:50:04.479Z,48.32
2023-01-28T05:52:33.290Z,49.76
2023-01-28T05:55:01.390Z,48.72
2023-01-28T05:57:28.857Z,50.10
2023-01-28T05:59:56.134Z,49.42
2023-01-28T06:02:23.374Z,50.46
2023-01-28T06:04:51.338Z,52.14
2023-01-28T06:07:20.223Z,51.96
2023-01-28T06:09:48.429Z,51.62
2023-01-28T06:12:16.502Z,52.11
2023-01-28T06:14:45.548Z,51.24
2023-01-28T06:17:12.875Z,51.08
2023-01-28T06:19:40.751Z,50.29
2023-01-28T06:22:08.110Z,51.41
2023-01-28T06:24:35.354Z,53.57
2023-01-28T06:27:02.826Z,57.14
2023-01-28T06:29:48.360Z,55.20
2023-01-28T06:32:16.808Z,53.86
2023-01-28T06:34:43.965Z,52.41
2023-01-28T06:37:14.353Z,52.96
2023-01-28T06:39:41.771Z,52.77
2023-01-28T06:42:08.906Z,51.32
2023-01-28T06:44:36.617Z,49.85
2023-01-28T06:47:04.076Z,48.66
2023-01-28T06:49:31.277Z,50.62
2023-01-28T06:51:58.517Z,50.37
2023-01-28T06:54:25.977Z,48.51
2023-01-28T06:56:53.130Z,50.90
2023-01-28T06:59:20.318Z,50.19
2023-01-28T07:01:47.812Z,53.95
2023-01-28T07:04:15.029Z,52.75
2023-01-28T07:06:42.380Z,50.64
2023-01-28T07:09:09.858Z,49.71
2023-01-28T07:11:37.039Z,50.14
2023-01-28T07:14:04.902Z,50.08
2023-01-28T07:16:32.319Z,53.77
2023-01-28T07:18:59.487Z,55.37
2023-01-28T07:21:26.646Z,52.47
2023-01-28T07:23:54.122Z,51.18
2023-01-28T07:26:21.330Z,51.15
2023-01-28T07:28:48.465Z,51.27
2023-01-28T07:31:16.024Z,53.50
2023-01-28T07:33:43.443Z,52.96
2023-01-28T07:36:10.582Z,51.72
2023-01-28T07:38:38.015Z,51.39
2023-01-28T07:41:05.332Z,53.61
2023-01-28T07:43:32.479Z,51.11
2023-01-28T07:46:00.543Z,50.84
2023-01-28T07:48:27.719Z,52.13
2023-01-28T07:50:58.172Z,53.60
2023-01-28T07:53:25.653Z,53.30
2023-01-28T07:55:52.870Z,53.11
2023-01-28T07:58:20.030Z,54.11
2023-01-28T08:00:47.586Z,53.51
2023-01-28T08:03:15.910Z,55.10
2023-01-28T08:05:47.437Z,56.67
2023-01-28T08:08:15.093Z,54.03
2023-01-28T08:10:44.054Z,55.15
2023-01-28T08:13:11.561Z,52.14
2023-01-28T08:15:39.085Z,55.31
2023-01-28T08:18:06.966Z,52.22
2023-01-28T08:20:34.318Z,54.33
2023-01-28T08:23:08.687Z,53.42
2023-01-28T08:25:35.980Z,52.06
2023-01-28T08:30:52.140Z,53.41
2023-01-28T08:33:20.007Z,55.59
2023-01-28T08:35:47.222Z,56.16
2023-01-28T08:38:17.928Z,57.13
2023-01-28T08:40:45.343Z,55.65
2023-01-28T08:43:12.578Z,56.12
2023-01-28T08:45:39.847Z,56.68
2023-01-28T08:48:07.887Z,55.73
2023-01-28T08:50:36.332Z,55.02
2023-01-28T08:53:04.396Z,54.14
2023-01-28T08:55:31.922Z,54.98
2023-01-28T08:58:03.997Z,55.34
2023-01-28T09:00:31.616Z,54.16
2023-01-28T09:02:58.755Z,57.17
2023-01-28T09:05:25.964Z,54.46
2023-01-28T09:07:53.397Z,57.65
2023-01-28T09:10:20.621Z,57.08
2023-01-28T09:12:47.890Z,56.84
2023-01-28T09:15:15.432Z,58.51
2023-01-28T09:17:42.584Z,56.95
2023-01-28T09:20:10.118Z,54.88
2023-01-28T09:22:37.552Z,56.00
2023-01-28T09:25:04.888Z,55.89
2023-01-28T09:27:32.091Z,53.79
2023-01-28T09:29:59.543Z,57.42
2023-01-28T09:32:26.691Z,53.28
2023-01-28T09:34:53.811Z,54.56
2023-01-28T09:37:21.230Z,53.01
2023-01-28T09:39:48.413Z,52.41
2023-01-28T09:42:27.624Z,52.79
2023-01-28T09:45:15.027Z,50.81
2023-01-28T09:47:44.103Z,50.56
2023-01-28T09:50:16.883Z,51.26
2023-01-28T09:52:44.255Z,55.19
2023-01-28T09:55:14.695Z,57.04
2023-01-28T09:57:44.787Z,57.20
2023-01-28T10:00:18.526Z,54.51
2023-01-28T10:03:04.930Z,52.57
2023-01-28T10:05:32.071Z,54.87
2023-01-28T10:08:18.137Z,53.96
2023-01-28T10:10:47.482Z,55.66
2023-01-28T10:13:37.876Z,57.73
2023-01-28T10:16:06.480Z,55.08
2023-01-28T10:18:54.173Z,53.29
2023-01-28T10:21:31.334Z,56.27
2023-01-28T10:23:58.849Z,53.06
2023-01-28T10:26:28.087Z,53.74
2023-01-28T10:28:56.573Z,51.68
2023-01-28T10:31:24.233Z,51.57
2023-01-28T10:33:51.411Z,53.75
2023-01-28T10:36:18.705Z,51.45
2023-01-28T10:38:47.140Z,52.36
2023-01-28T10:41:16.103Z,51.05
2023-01-28T10:43:43.249Z,51.02
2023-01-28T10:46:17.919Z,55.52
2023-01-28T10:49:03.990Z,54.93
2023-01-28T10:51:32.788Z,53.16
2023-01-28T10:53:59.960Z,54.45
2023-01-28T10:56:27.850Z,50.26
2023-01-28T10:59:01.578Z,50.58
2023-01-28T11:01:39.281Z,52.19
2023-01-28T11:04:06.828Z,51.45
2023-01-28T11:06:33.966Z,50.23
2023-01-28T11:09:01.648Z,48.29
2023-01-28T11:11:29.838Z,50.59
2023-01-28T11:13:58.745Z,51.67
2023-01-28T11:16:27.389Z,53.43
2023-01-28T11:19:04.237Z,52.54
2023-01-28T11:21:31.543Z,53.56
2023-01-28T11:24:00.249Z,51.39
2023-01-28T11:26:28.670Z,52.75
2023-01-28T11:28:55.809Z,50.62
2023-01-28T11:31:26.537Z,51.92
2023-01-28T11:33:57.339Z,53.89
2023-01-28T11:36:28.460Z,50.63
2023-01-28T11:38:56.627Z,49.37
2023-01-28T11:41:28.383Z,52.20
2023-01-28T11:43:56.925Z,53.10
2023-01-28T11:46:43.713Z,51.23
2023-01-28T11:49:11.136Z,53.35
2023-01-28T11:51:43.307Z,52.11
2023-01-28T11:54:18.056Z,52.54
2023-01-28T11:56:48.354Z,50.02
2023-01-28T11:59:32.315Z,50.13
2023-01-28T12:02:18.468Z,49.82
2023-01-28T12:05:12.608Z,48.86
2023-01-28T12:07:55.682Z,48.19
2023-01-28T12:10:25.477Z,49.11
2023-01-28T12:13:03.755Z,50.91
2023-01-28T12:15:51.226Z,49.14
2023-01-28T12:18:32.164Z,48.45
2023-01-28T12:21:08.404Z,48.97
2023-01-28T12:23:38.954Z,49.46
2023-01-28T12:26:06.417Z,49.18
2023-01-28T12:28:49.577Z,48.92
2023-01-28T12:31:36.138Z,49.93
2023-01-28T12:34:07.788Z,53.14
2023-01-28T12:36:42.286Z,50.60
2023-01-28T12:39:26.796Z,49.90
2023-01-28T12:42:04.004Z,49.32
2023-01-28T12:44:35.353Z,50.39
2023-01-28T12:47:05.842Z,47.33
2023-01-28T12:49:37.512Z,48.28
2023-01-28T12:52:16.073Z,49.87
2023-01-28T12:55:18.896Z,50.66
2023-01-28T12:57:46.335Z,49.38
2023-01-28T13:00:27.420Z,49.14
2023-01-28T13:03:01.126Z,49.67
2023-01-28T13:05:33.033Z,47.19
2023-01-28T13:08:05.623Z,46.83
2023-01-28T13:10:40.649Z,47.12
2023-01-28T13:13:09.388Z,47.13
2023-01-28T13:15:36.873Z,51.35
2023-01-28T13:18:05.050Z,50.53
2023-01-28T13:20:37.084Z,48.21
2023-01-28T13:23:06.642Z,46.75
2023-01-28T13:25:34.640Z,49.82
2023-01-28T13:28:02.630Z,49.29
2023-01-28T13:30:31.771Z,50.12
2023-01-28T13:33:03.356Z,48.28
2023-01-28T13:35:37.600Z,49.78
2023-01-28T13:38:16.326Z,49.04
2023-01-28T13:40:43.667Z,48.80
2023-01-28T13:43:26.103Z,48.90
2023-01-28T13:45:57.553Z,50.18
2023-01-28T13:48:33.726Z,49.70
2023-01-28T13:51:02.039Z,50.28
2023-01-28T13:53:44.517Z,51.38
2023-01-28T13:56:28.301Z,49.76
2023-01-28T13:58:58.756Z,48.45
2023-01-28T14:01:31.453Z,47.14
2023-01-28T14:04:34.464Z,50.24
2023-01-28T14:07:01.618Z,51.15
2023-01-28T14:09:55.322Z,49.88
2023-01-28T14:12:40.935Z,52.18
2023-01-28T14:15:20.387Z,53.05
2023-01-28T14:17:48.665Z,52.10
2023-01-28T14:20:24.914Z,50.34
2023-01-28T14:23:01.373Z,50.31
2023-01-28T14:25:40.900Z,50.57
2023-01-28T14:28:09.921Z,49.90
2023-01-28T14:30:43.743Z,51.42
2023-01-28T14:33:11.330Z,50.31
2023-01-28T14:35:40.028Z,48.80
2023-01-28T14:38:07.920Z,50.57
2023-01-28T14:40:36.449Z,50.43
2023-01-28T14:43:04.008Z,52.02
2023-01-28T14:45:40.320Z,51.79
2023-01-28T14:48:16.567Z,50.35
2023-01-28T14:50:49.575Z,49.47
2023-01-28T14:53:35.707Z,52.14
2023-01-28T14:56:14.920Z,48.10
2023-01-28T14:58:44.205Z,51.87
2023-01-28T15:01:24.898Z,51.81
2023-01-28T15:03:52.483Z,52.13
2023-01-28T15:06:21.090Z,51.65
2023-01-28T15:08:48.348Z,50.60
2023-01-28T15:11:17.762Z,51.04
2023-01-28T15:13:48.570Z,51.42
2023-01-28T15:16:16.887Z,50.63
2023-01-28T15:18:44.093Z,51.28
2023-01-28T15:21:11.313Z,52.90
2023-01-28T15:23:39.850Z,50.54
2023-01-28T15:26:07.572Z,50.09
2023-01-28T15:28:35.680Z,51.65
2023-01-28T15:31:03.268Z,52.08
2023-01-28T15:33:30.650Z,51.77
2023-01-28T15:35:58.579Z,49.22
2023-01-28T15:38:27.160Z,50.55
2023-01-28T15:41:01.423Z,50.94
2023-01-28T15:43:29.503Z,50.12
2023-01-28T15:45:57.351Z,51.29
2023-01-28T15:48:31.012Z,49.11
2023-01-28T15:51:02.642Z,50.44
2023-01-28T15:53:34.499Z,50.83
2023-01-28T15:56:06.293Z,49.93
2023-01-28T15:58:35.288Z,52.16
2023-01-28T16:01:08.902Z,53.34
2023-01-28T16:03:40.595Z,55.25
2023-01-28T16:06:16.017Z,51.77
2023-01-28T16:08:48.277Z,53.08
2023-01-28T16:11:21.662Z,54.02
2023-01-28T16:13:49.234Z,51.61
2023-01-28T16:16:24.373Z,50.71
2023-01-28T16:18:56.062Z,51.14
2023-01-28T16:21:32.262Z,49.57
2023-01-28T16:24:00.259Z,49.58
2023-01-28T16:26:28.896Z,48.76
2023-01-28T16:28:56.186Z,53.21
2023-01-28T16:31:23.745Z,50.29
2023-01-28T16:33:50.993Z,49.97
2023-01-28T16:36:19.513Z,52.62
2023-01-28T16:38:47.987Z,52.92
2023-01-28T16:41:18.826Z,50.74
2023-01-28T16:43:47.362Z,50.46
2023-01-28T16:46:18.620Z,50.57
2023-01-28T16:48:47.726Z,50.62
2023-01-28T16:51:17.498Z,53.04
2023-01-28T16:53:48.670Z,51.59
2023-01-28T16:56:35.814Z,51.20
2023-01-28T16:59:04.245Z,51.60
2023-01-28T17:01:31.878Z,53.25
2023-01-28T17:03:59.143Z,51.52
2023-01-28T17:06:26.681Z,50.93
2023-01-28T17:08:54.726Z,51.51
2023-01-28T17:11:22.434Z,52.49
2023-01-28T17:13:49.571Z,54.16
2023-01-28T17:16:17.297Z,51.99
2023-01-28T17:18:46.317Z,49.53
2023-01-28T17:21:14.605Z,52.25
2023-01-28T17:23:42.859Z,48.99
2023-01-28T17:26:10.932Z,49.28
2023-01-28T17:28:38.240Z,51.85
2023-01-28T17:31:07.251Z,54.24
2023-01-28T17:33:35.296Z,53.19
2023-01-28T17:36:02.998Z,51.43
2023-01-28T17:38:31.002Z,51.55
2023-01-28T17:41:02.602Z,53.80
2023-01-28T17:43:30.118Z,54.86
2023-01-28T17:45:57.929Z,52.84
2023-01-28T17:48:25.660Z,51.75
2023-01-28T17:50:57.552Z,52.62
2023-01-28T17:53:25.526Z,51.78
2023-01-28T17:55:53.743Z,50.05
2023-01-28T17:58:21.474Z,52.57
2023-01-28T18:00:49.060Z,50.65
2023-01-28T18:03:17.005Z,50.55
2023-01-28T18:05:44.832Z,49.68
2023-01-28T18:08:12.542Z,49.29
2023-01-28T18:10:43.116Z,48.52
2023-01-28T18:13:10.625Z,47.60
2023-01-28T18:15:38.126Z,49.61
2023-01-28T18:18:06.081Z,50.57
2023-01-28T18:20:34.714Z,49.46
2023-01-28T18:23:01.887Z,50.07
2023-01-28T18:25:36.358Z,49.99
2023-01-28T18:28:05.291Z,53.34
2023-01-28T18:30:33.368Z,52.03
2023-01-28T18:33:00.599Z,50.28
2023-01-28T18:35:27.791Z,49.39
2023-01-28T18:37:56.113Z,48.46
2023-01-28T18:40:23.884Z,50.30
2023-01-28T18:42:52.464Z,50.34
2023-01-28T18:45:22.440Z,47.70
2023-01-28T18:47:50.808Z,49.27
2023-01-28T18:50:18.279Z,49.22
2023-01-28T18:52:46.194Z,48.96
2023-01-28T18:55:13.559Z,49.66
2023-01-28T18:57:42.629Z,47.35
2023-01-28T19:00:11.573Z,48.04
2023-01-28T19:02:39.067Z,47.62
2023-01-28T19:05:07.081Z,45.85
2023-01-28T19:07:35.012Z,46.12
2023-01-28T19:10:03.506Z,45.46
2023-01-28T19:12:32.899Z,46.16
2023-01-28T19:15:00.757Z,45.58
2023-01-28T19:17:28.616Z,46.21
2023-01-28T19:19:56.255Z,45.24
2023-01-28T19:22:24.357Z,47.43
2023-01-28T19:24:52.025Z,48.41
2023-01-28T19:27:20.187Z,46.33
2023-01-28T19:29:48.458Z,47.03
2023-01-28T19:32:16.364Z,46.96
2023-01-28T19:34:43.929Z,46.71
2023-01-28T19:37:12.344Z,46.49
2023-01-28T19:39:41.587Z,47.39
2023-01-28T19:42:09.187Z,46.37
2023-01-28T19:44:37.402Z,46.88
2023-01-28T19:47:09.019Z,46.65
2023-01-28T19:49:37.775Z,46.38
2023-01-28T19:52:09.444Z,46.46
2023-01-28T19:54:37.574Z,48.37
2023-01-28T19:57:05.940Z,46.80
2023-01-28T19:59:33.754Z,46.79
2023-01-28T20:02:01.916Z,46.53
2023-01-28T20:04:30.608Z,46.96
2023-01-28T20:06:58.205Z,47.52
2023-01-28T20:09:25.900Z,47.30
2023-01-28T20:11:54.554Z,47.73
2023-01-28T20:14:23.028Z,47.58
2023-01-28T20:16:51.628Z,47.74
2023-01-28T20:19:19.802Z,47.77
2023-01-28T20:21:47.728Z,47.93
2023-01-28T20:24:15.924Z,48.63
2023-01-28T20:26:44.494Z,47.71
2023-01-28T20:29:18.113Z,46.95
2023-01-28T20:31:54.716Z,47.51
2023-01-28T20:34:32.706Z,47.68
2023-01-28T20:37:00.796Z,46.00
2023-01-28T20:39:29.776Z,50.27
2023-01-28T20:41:59.404Z,49.25
2023-01-28T20:44:31.944Z,48.71
2023-01-28T20:46:59.673Z,49.71
2023-01-28T20:49:31.377Z,50.27
2023-01-28T20:51:59.220Z,49.47
2023-01-28T20:54:29.691Z,49.96
2023-01-28T20:56:57.792Z,51.43
2023-01-28T20:59:25.693Z,47.77
2023-01-28T21:01:53.789Z,49.06
2023-01-28T21:04:21.144Z,47.78
2023-01-28T21:06:50.475Z,49.34
2023-01-28T21:09:18.861Z,52.03
2023-01-28T21:11:46.274Z,50.13
2023-01-28T21:14:17.274Z,50.81
2023-01-28T21:16:45.733Z,49.75
2023-01-28T21:19:13.709Z,50.47
2023-01-28T21:21:43.301Z,52.76
2023-01-28T21:24:12.548Z,50.96
2023-01-28T21:26:40.315Z,51.02
2023-01-28T21:29:08.034Z,51.78
2023-01-28T21:31:36.954Z,49.70
2023-01-28T21:34:04.304Z,51.87
2023-01-28T21:36:38.758Z,51.05
2023-01-28T21:39:07.005Z,50.19
2023-01-28T21:41:34.699Z,49.81
2023-01-28T21:44:02.219Z,50.63
2023-01-28T21:46:30.485Z,51.70
2023-01-28T21:48:58.899Z,49.58
2023-01-28T21:51:35.724Z,51.85
2023-01-28T21:54:04.578Z,51.06
2023-01-28T21:56:32.069Z,50.04
2023-01-28T21:59:18.324Z,50.12
2023-01-28T22:01:45.968Z,50.17
2023-01-28T22:04:14.213Z,51.96
2023-01-28T22:06:42.369Z,51.78
2023-01-28T22:09:11.939Z,53.35
2023-01-28T22:11:40.507Z,49.30
2023-01-28T22:14:07.904Z,50.92
2023-01-28T22:16:35.097Z,50.10
2023-01-28T22:19:02.941Z,49.84
2023-01-28T22:21:30.208Z,49.95
2023-01-28T22:23:57.395Z,48.79
2023-01-28T22:26:24.883Z,46.62
2023-01-28T22:28:52.094Z,51.70
2023-01-28T22:31:19.302Z,51.27
2023-01-28T22:33:46.792Z,48.86
2023-01-28T22:36:15.076Z,47.70
2023-01-28T22:38:45.516Z,50.80
2023-01-28T22:41:14.261Z,49.14
2023-01-28T22:43:41.433Z,48.36
2023-01-28T22:46:09.188Z,50.64
2023-01-28T22:48:37.331Z,49.51
2023-01-28T22:51:05.822Z,50.48
2023-01-28T22:53:33.014Z,50.40
2023-01-28T22:56:00.996Z,48.63
2023-01-28T22:58:31.272Z,46.42
2023-01-28T23:00:59.137Z,49.72
2023-01-28T23:03:30.423Z,49.53
2023-01-28T23:05:58.961Z,49.93
2023-01-28T23:08:26.687Z,48.82
2023-01-28T23:10:57.232Z,48.29
2023-01-28T23:13:28.533Z,51.64
2023-01-28T23:16:15.990Z,51.14
2023-01-28T23:19:04.543Z,50.21
2023-01-28T23:21:50.824Z,50.55
2023-01-28T23:24:19.576Z,49.74
2023-01-28T23:26:51.905Z,46.72
2023-01-28T23:29:20.445Z,48.81
2023-01-28T23:31:47.946Z,49.34
2023-01-28T23:34:15.375Z,49.45
2023-01-28T23:36:42.799Z,47.51
2023-01-28T23:39:10.499Z,48.37
2023-01-28T23:41:47.200Z,49.79
2023-01-28T23:44:27.069Z,52.42
2023-01-28T23:46:54.423Z,49.26
2023-01-28T23:49:21.705Z,51.34
2023-01-28T23:51:49.631Z,52.53
2023-01-28T23:54:17.507Z,53.68
2023-01-28T23:56:44.723Z,51.96
2023-01-28T23:59:12.174Z,52.63
